createdAt,value
2018-11-06T00:00:59.352Z,98.14
2018-11-06T00:01:59.722Z,97.79
2018-11-06T00:02:59.491Z,98.14
2018-11-06T00:03:59.318Z,97.54
2018-11-06T00:04:59.317Z,98.04
2018-11-06T00:05:59.372Z,98.08
2018-11-06T00:06:59.381Z,97.61
2018-11-06T00:07:59.464Z,97.86
2018-11-06T00:09:00.277Z,97.72
2018-11-06T00:09:59.343Z,97.75
2018-11-06T00:10:59.355Z,97.75
2018-11-06T00:11:59.334Z,97.72
2018-11-06T00:12:59.529Z,98.74
2018-11-06T00:13:59.379Z,98.96
2018-11-06T00:14:59.289Z,99.89
2018-11-06T00:15:59.398Z,99.97
2018-11-06T00:16:59.390Z,99.96
2018-11-06T00:17:59.419Z,99.8
2018-11-06T00:18:59.601Z,99.78
2018-11-06T00:19:59.394Z,99.53
2018-11-06T00:20:59.337Z,100
2018-11-06T00:21:59.276Z,100
2018-11-06T00:23:00.396Z,100
2018-11-06T00:23:59.431Z,100
2018-11-06T00:24:59.460Z,99.94
2018-11-06T00:25:59.437Z,100
2018-11-06T00:26:59.314Z,100
2018-11-06T00:27:59.286Z,100
2018-11-06T00:28:59.389Z,100
2018-11-06T00:29:59.465Z,100
2018-11-06T00:30:59.402Z,100
2018-11-06T00:31:59.362Z,100
2018-11-06T00:32:59.412Z,100
2018-11-06T00:34:00.612Z,100
2018-11-06T00:34:59.386Z,100
2018-11-06T00:35:59.359Z,100
2018-11-06T00:36:59.452Z,100
2018-11-06T00:37:59.450Z,100
2018-11-06T00:39:00.500Z,99.71
2018-11-06T00:39:59.304Z,100
2018-11-06T00:40:59.672Z,100
2018-11-06T00:41:59.509Z,100
2018-11-06T00:42:59.335Z,100
2018-11-06T00:43:59.327Z,99.9
2018-11-06T00:44:59.501Z,99.5
2018-11-06T00:45:59.365Z,99.91
2018-11-06T00:46:59.340Z,99.75
2018-11-06T00:47:59.495Z,100
2018-11-06T00:48:59.428Z,100
2018-11-06T00:49:59.510Z,100
2018-11-06T00:50:59.470Z,100
2018-11-06T00:51:59.503Z,100
2018-11-06T00:52:59.360Z,100
2018-11-06T00:54:00.234Z,100
2018-11-06T00:54:59.372Z,100
2018-11-06T00:55:59.311Z,100
2018-11-06T00:56:59.447Z,100
2018-11-06T00:57:59.461Z,100
2018-11-06T00:58:59.338Z,100
2018-11-06T00:59:59.334Z,100
2018-11-06T01:00:59.248Z,100
2018-11-06T01:01:59.470Z,100
2018-11-06T01:02:59.408Z,100
2018-11-06T01:03:59.454Z,100
2018-11-06T01:04:59.378Z,100
2018-11-06T01:05:59.297Z,100
2018-11-06T01:06:59.404Z,100
2018-11-06T01:07:59.389Z,100
2018-11-06T01:08:59.244Z,100
2018-11-06T01:10:00.012Z,100
2018-11-06T01:10:59.266Z,100
2018-11-06T01:11:59.234Z,100
2018-11-06T01:12:59.303Z,100
2018-11-06T01:13:59.418Z,100
2018-11-06T01:14:59.405Z,100
2018-11-06T01:15:59.395Z,100
2018-11-06T01:16:59.288Z,100
2018-11-06T01:17:59.286Z,100
2018-11-06T01:18:59.233Z,100
2018-11-06T01:19:59.293Z,100
2018-11-06T01:20:59.417Z,100
2018-11-06T01:21:59.540Z,100
2018-11-06T01:22:59.289Z,100
2018-11-06T01:23:59.336Z,100
2018-11-06T01:24:59.404Z,100
2018-11-06T01:25:59.307Z,100
2018-11-06T01:26:59.675Z,100
2018-11-06T01:27:59.644Z,100
2018-11-06T01:28:59.295Z,100
2018-11-06T01:29:59.329Z,100
2018-11-06T01:30:59.223Z,100
2018-11-06T01:31:59.410Z,100
2018-11-06T01:32:59.225Z,100
2018-11-06T01:33:59.754Z,100
2018-11-06T01:34:59.292Z,100
2018-11-06T01:35:59.210Z,100
2018-11-06T01:36:59.150Z,100
2018-11-06T01:37:59.184Z,100
2018-11-06T01:38:59.291Z,100
2018-11-06T01:39:59.886Z,100
2018-11-06T01:40:59.167Z,100
2018-11-06T01:41:59.250Z,100
2018-11-06T01:42:59.148Z,100
2018-11-06T01:43:59.214Z,100
2018-11-06T01:44:59.277Z,100
2018-11-06T01:45:59.221Z,100
2018-11-06T01:46:59.175Z,100
2018-11-06T01:47:59.185Z,100
2018-11-06T01:48:59.163Z,100
2018-11-06T01:49:59.239Z,100
2018-11-06T01:50:59.218Z,100
2018-11-06T01:51:59.195Z,100
2018-11-06T01:52:59.231Z,100
2018-11-06T01:53:59.301Z,100
2018-11-06T01:54:59.228Z,100
2018-11-06T01:55:59.241Z,100
2018-11-06T01:56:59.209Z,100
2018-11-06T01:57:59.178Z,100
2018-11-06T01:58:59.525Z,100
2018-11-06T01:59:59.298Z,100
2018-11-06T02:00:59.350Z,100
2018-11-06T02:01:59.244Z,100
2018-11-06T02:02:59.562Z,100
2018-11-06T02:03:59.237Z,100
2018-11-06T02:04:59.227Z,100
2018-11-06T02:05:59.297Z,100
2018-11-06T02:06:59.208Z,100
2018-11-06T02:07:59.171Z,100
2018-11-06T02:08:59.190Z,100
2018-11-06T02:09:59.157Z,100
2018-11-06T02:10:59.205Z,100
2018-11-06T02:11:59.177Z,100
2018-11-06T02:12:59.379Z,100
2018-11-06T02:13:59.162Z,100
2018-11-06T02:14:59.154Z,100
2018-11-06T02:15:59.213Z,100
2018-11-06T02:16:59.470Z,100
2018-11-06T02:17:59.208Z,100
2018-11-06T02:18:59.315Z,100
2018-11-06T02:19:59.276Z,100
2018-11-06T02:20:59.347Z,100
2018-11-06T02:21:59.245Z,100
2018-11-06T02:22:59.202Z,100
2018-11-06T02:23:59.238Z,100
2018-11-06T02:24:59.274Z,100
2018-11-06T02:25:59.147Z,100
2018-11-06T02:26:59.225Z,100
2018-11-06T02:27:59.152Z,100
2018-11-06T02:28:59.113Z,100
2018-11-06T02:29:59.145Z,100
2018-11-06T02:31:00.102Z,100
2018-11-06T02:31:59.298Z,100
2018-11-06T02:32:59.150Z,100
2018-11-06T02:33:59.092Z,100
2018-11-06T02:34:59.401Z,100
2018-11-06T02:35:59.187Z,100
2018-11-06T02:36:59.125Z,100
2018-11-06T02:37:59.123Z,100
2018-11-06T02:38:59.146Z,100
2018-11-06T02:39:59.299Z,100
2018-11-06T02:40:59.547Z,100
2018-11-06T02:41:59.146Z,100
2018-11-06T02:42:59.232Z,100
2018-11-06T02:43:59.197Z,100
2018-11-06T02:44:59.158Z,100
2018-11-06T02:45:59.104Z,100
2018-11-06T02:46:59.271Z,100
2018-11-06T02:47:59.165Z,100
2018-11-06T02:48:59.219Z,100
2018-11-06T02:49:59.224Z,100
2018-11-06T02:50:59.216Z,100
2018-11-06T02:51:59.286Z,100
2018-11-06T02:52:59.271Z,100
2018-11-06T02:53:59.553Z,100
2018-11-06T02:54:59.284Z,100
2018-11-06T02:55:59.212Z,100
2018-11-06T02:56:59.129Z,100
2018-11-06T02:57:59.131Z,100
2018-11-06T02:58:59.205Z,100
2018-11-06T02:59:59.264Z,100
2018-11-06T03:00:59.558Z,100
2018-11-06T03:01:59.179Z,100
2018-11-06T03:02:59.270Z,100
2018-11-06T03:03:59.095Z,100
2018-11-06T03:04:59.581Z,100
2018-11-06T03:05:59.136Z,100
2018-11-06T03:06:59.286Z,100
2018-11-06T03:07:59.105Z,100
2018-11-06T03:08:59.193Z,100
2018-11-06T03:09:59.111Z,100
2018-11-06T03:10:59.346Z,100
2018-11-06T03:11:59.103Z,100
2018-11-06T03:12:59.204Z,100
2018-11-06T03:13:59.039Z,100
2018-11-06T03:14:59.092Z,100
2018-11-06T03:15:59.166Z,100
2018-11-06T03:16:59.259Z,100
2018-11-06T03:17:59.108Z,100
2018-11-06T03:18:59.066Z,100
2018-11-06T03:19:59.088Z,100
2018-11-06T03:20:59.039Z,100
2018-11-06T03:21:59.073Z,100
2018-11-06T03:22:59.045Z,100
2018-11-06T03:23:59.491Z,100
2018-11-06T03:24:59.062Z,100
2018-11-06T03:25:59.153Z,100
2018-11-06T03:26:59.315Z,100
2018-11-06T03:27:59.054Z,100
2018-11-06T03:28:59.073Z,100
2018-11-06T03:29:59.102Z,100
2018-11-06T03:30:59.071Z,100
2018-11-06T03:31:59.074Z,100
2018-11-06T03:32:59.355Z,100
2018-11-06T03:33:59.385Z,100
2018-11-06T03:34:59.135Z,100
2018-11-06T03:35:59.447Z,100
2018-11-06T03:36:59.070Z,100
2018-11-06T03:37:59.083Z,100
2018-11-06T03:38:59.131Z,100
2018-11-06T03:39:59.131Z,100
2018-11-06T03:40:59.066Z,100
2018-11-06T03:41:59.028Z,100
2018-11-06T03:42:59.085Z,100
2018-11-06T03:43:59.173Z,100
2018-11-06T03:44:59.055Z,100
2018-11-06T03:45:59.543Z,100
2018-11-06T03:46:59.220Z,100
2018-11-06T03:47:59.013Z,100
2018-11-06T03:48:59.468Z,100
2018-11-06T03:49:59.137Z,100
2018-11-06T03:50:59.193Z,100
2018-11-06T03:51:59.401Z,100
2018-11-06T03:52:59.272Z,100
2018-11-06T03:53:59.087Z,100
2018-11-06T03:54:59.024Z,100
2018-11-06T03:55:59.192Z,100
2018-11-06T03:56:59.032Z,100
2018-11-06T03:57:59.818Z,100
2018-11-06T03:58:59.071Z,100
2018-11-06T04:00:00.154Z,100
2018-11-06T04:00:59.125Z,100
2018-11-06T04:01:58.974Z,100
2018-11-06T04:02:59.865Z,100
2018-11-06T04:03:59.140Z,100
2018-11-06T04:04:59.048Z,100
2018-11-06T04:05:59.045Z,100
2018-11-06T04:06:59.313Z,100
2018-11-06T04:07:59.167Z,100
2018-11-06T04:08:59.014Z,100
2018-11-06T04:09:59.000Z,100
2018-11-06T04:10:59.099Z,100
2018-11-06T04:11:59.148Z,100
2018-11-06T04:12:59.105Z,100
2018-11-06T04:13:59.007Z,100
2018-11-06T04:14:59.141Z,100
2018-11-06T04:15:59.064Z,100
2018-11-06T04:16:59.348Z,100
2018-11-06T04:17:59.125Z,100
2018-11-06T04:18:59.068Z,100
2018-11-06T04:19:59.133Z,100
2018-11-06T04:20:58.968Z,100
2018-11-06T04:21:59.070Z,100
2018-11-06T04:22:58.993Z,100
2018-11-06T04:23:59.076Z,100
2018-11-06T04:24:59.203Z,100
2018-11-06T04:25:59.089Z,100
2018-11-06T04:26:58.960Z,100
2018-11-06T04:27:59.088Z,100
2018-11-06T04:28:59.005Z,100
2018-11-06T04:29:59.095Z,100
2018-11-06T04:30:59.034Z,100
2018-11-06T04:31:58.903Z,100
2018-11-06T04:32:59.107Z,100
2018-11-06T04:33:59.160Z,100
2018-11-06T04:34:59.149Z,100
2018-11-06T04:35:58.987Z,100
2018-11-06T04:36:58.985Z,100
2018-11-06T04:37:59.034Z,100
2018-11-06T04:38:58.961Z,100
2018-11-06T04:39:59.144Z,100
2018-11-06T04:40:59.090Z,100
2018-11-06T04:41:58.984Z,100
2018-11-06T04:42:59.144Z,100
2018-11-06T04:43:59.016Z,100
2018-11-06T04:44:59.055Z,100
2018-11-06T04:45:59.077Z,100
2018-11-06T04:46:58.928Z,100
2018-11-06T04:47:58.948Z,100
2018-11-06T04:48:59.123Z,100
2018-11-06T04:49:58.891Z,100
2018-11-06T04:50:59.288Z,100
2018-11-06T04:51:58.886Z,100
2018-11-06T04:52:58.932Z,100
2018-11-06T04:53:59.120Z,100
2018-11-06T04:54:58.920Z,100
2018-11-06T04:55:58.940Z,100
2018-11-06T04:56:58.913Z,100
2018-11-06T04:57:58.911Z,100
2018-11-06T04:58:58.914Z,100
2018-11-06T04:59:58.966Z,100
2018-11-06T05:00:58.981Z,100
2018-11-06T05:01:58.918Z,100
2018-11-06T05:02:58.888Z,100
2018-11-06T05:03:58.945Z,100
2018-11-06T05:04:59.075Z,100
2018-11-06T05:05:58.892Z,100
2018-11-06T05:06:59.485Z,100
2018-11-06T05:07:58.879Z,100
2018-11-06T05:08:59.278Z,100
2018-11-06T05:09:59.017Z,100
2018-11-06T05:10:58.938Z,100
2018-11-06T05:11:58.989Z,100
2018-11-06T05:12:58.878Z,100
2018-11-06T05:13:58.887Z,100
2018-11-06T05:14:58.860Z,100
2018-11-06T05:15:59.103Z,100
2018-11-06T05:16:59.078Z,100
2018-11-06T05:17:59.031Z,100
2018-11-06T05:18:58.970Z,100
2018-11-06T05:19:59.049Z,100
2018-11-06T05:20:58.874Z,100
2018-11-06T05:21:59.167Z,100
2018-11-06T05:22:58.912Z,100
2018-11-06T05:23:59.063Z,100
2018-11-06T05:24:58.904Z,100
2018-11-06T05:25:59.040Z,100
2018-11-06T05:26:59.111Z,100
2018-11-06T05:27:59.369Z,100
2018-11-06T05:28:59.021Z,100
2018-11-06T05:29:59.002Z,100
2018-11-06T05:30:58.905Z,100
2018-11-06T05:31:59.025Z,100
2018-11-06T05:32:59.130Z,100
2018-11-06T05:33:58.861Z,100
2018-11-06T05:34:59.062Z,100
2018-11-06T05:35:58.933Z,100
2018-11-06T05:36:58.953Z,100
2018-11-06T05:37:58.958Z,100
2018-11-06T05:38:59.003Z,100
2018-11-06T05:39:58.939Z,100
2018-11-06T05:40:58.922Z,100
2018-11-06T05:41:58.932Z,100
2018-11-06T05:42:58.887Z,100
2018-11-06T05:43:58.978Z,100
2018-11-06T05:44:58.908Z,100
2018-11-06T05:45:58.914Z,100
2018-11-06T05:46:59.024Z,100
2018-11-06T05:47:58.912Z,100
2018-11-06T05:48:58.797Z,100
2018-11-06T05:49:59.017Z,100
2018-11-06T05:50:58.897Z,100
2018-11-06T05:51:58.820Z,100
2018-11-06T05:52:58.940Z,100
2018-11-06T05:53:59.022Z,100
2018-11-06T05:54:58.817Z,100
2018-11-06T05:55:59.001Z,100
2018-11-06T05:56:58.804Z,100
2018-11-06T05:57:59.128Z,100
2018-11-06T05:58:58.922Z,100
2018-11-06T05:59:58.795Z,100
2018-11-06T06:00:59.055Z,100
2018-11-06T06:01:58.882Z,100
2018-11-06T06:02:58.861Z,100
2018-11-06T06:03:58.829Z,100
2018-11-06T06:04:58.910Z,100
2018-11-06T06:05:59.075Z,100
2018-11-06T06:06:58.790Z,100
2018-11-06T06:07:58.782Z,100
2018-11-06T06:08:59.096Z,100
2018-11-06T06:09:58.969Z,100
2018-11-06T06:10:59.049Z,100
2018-11-06T06:11:58.807Z,100
2018-11-06T06:12:58.859Z,100
2018-11-06T06:13:59.028Z,100
2018-11-06T06:14:58.768Z,100
2018-11-06T06:15:58.783Z,100
2018-11-06T06:16:58.960Z,100
2018-11-06T06:17:58.926Z,100
2018-11-06T06:18:58.949Z,100
2018-11-06T06:19:58.973Z,100
2018-11-06T06:20:58.839Z,100
2018-11-06T06:21:58.941Z,100
2018-11-06T06:22:59.002Z,100
2018-11-06T06:23:59.514Z,100
2018-11-06T06:24:58.760Z,100
2018-11-06T06:25:58.774Z,100
2018-11-06T06:26:58.763Z,100
2018-11-06T06:27:58.847Z,100
2018-11-06T06:28:58.819Z,100
2018-11-06T06:29:58.933Z,100
2018-11-06T06:30:58.909Z,100
2018-11-06T06:31:58.776Z,100
2018-11-06T06:32:58.740Z,100
2018-11-06T06:33:59.088Z,100
2018-11-06T06:34:58.784Z,100
2018-11-06T06:35:58.912Z,100
2018-11-06T06:36:58.753Z,100
2018-11-06T06:37:58.859Z,100
2018-11-06T06:38:58.998Z,100
2018-11-06T06:39:58.811Z,100
2018-11-06T06:40:58.855Z,100
2018-11-06T06:41:58.735Z,100
2018-11-06T06:42:58.735Z,100
2018-11-06T06:43:58.801Z,100
2018-11-06T06:44:58.742Z,100
2018-11-06T06:45:59.150Z,100
2018-11-06T06:46:58.773Z,100
2018-11-06T06:47:58.955Z,100
2018-11-06T06:48:58.724Z,100
2018-11-06T06:49:58.896Z,100
2018-11-06T06:50:58.794Z,100
2018-11-06T06:51:58.963Z,100
2018-11-06T06:52:58.732Z,100
2018-11-06T06:53:58.764Z,100
2018-11-06T06:54:58.757Z,100
2018-11-06T06:55:58.875Z,100
2018-11-06T06:56:58.884Z,100
2018-11-06T06:57:59.023Z,100
2018-11-06T06:58:58.750Z,100
2018-11-06T06:59:58.746Z,100
2018-11-06T07:00:59.123Z,100
2018-11-06T07:01:59.052Z,100
2018-11-06T07:02:58.716Z,100
2018-11-06T07:03:58.766Z,100
2018-11-06T07:04:58.736Z,100
2018-11-06T07:05:58.711Z,100
2018-11-06T07:06:58.745Z,100
2018-11-06T07:07:58.715Z,100
2018-11-06T07:08:58.698Z,100
2018-11-06T07:09:58.879Z,100
2018-11-06T07:10:58.726Z,100
2018-11-06T07:11:58.690Z,100
2018-11-06T07:12:58.953Z,100
2018-11-06T07:13:58.770Z,100
2018-11-06T07:14:58.698Z,100
2018-11-06T07:15:58.865Z,100
2018-11-06T07:16:58.708Z,100
2018-11-06T07:17:58.731Z,100
2018-11-06T07:18:58.853Z,100
2018-11-06T07:19:58.883Z,100
2018-11-06T07:20:58.684Z,100
2018-11-06T07:21:58.720Z,100
2018-11-06T07:22:58.754Z,100
2018-11-06T07:23:58.658Z,100
2018-11-06T07:24:58.739Z,100
2018-11-06T07:25:58.669Z,100
2018-11-06T07:26:58.771Z,100
2018-11-06T07:27:58.761Z,100
2018-11-06T07:28:58.830Z,100
2018-11-06T07:29:58.957Z,100
2018-11-06T07:30:58.828Z,100
2018-11-06T07:31:58.643Z,100
2018-11-06T07:32:58.681Z,100
2018-11-06T07:33:58.675Z,100
2018-11-06T07:34:58.955Z,100
2018-11-06T07:35:58.924Z,100
2018-11-06T07:36:58.680Z,100
2018-11-06T07:37:59.030Z,100
2018-11-06T07:38:58.702Z,100
2018-11-06T07:39:58.845Z,100
2018-11-06T07:40:58.856Z,100
2018-11-06T07:41:58.718Z,100
2018-11-06T07:42:58.713Z,100
2018-11-06T07:43:58.688Z,100
2018-11-06T07:44:58.931Z,100
2018-11-06T07:45:58.737Z,100
2018-11-06T07:46:58.637Z,100
2018-11-06T07:47:58.752Z,100
2018-11-06T07:48:59.128Z,100
2018-11-06T07:49:59.162Z,100
2018-11-06T07:50:58.630Z,100
2018-11-06T07:51:58.601Z,100
2018-11-06T07:52:58.958Z,100
2018-11-06T07:53:58.994Z,100
2018-11-06T07:54:59.106Z,100
2018-11-06T07:55:59.009Z,100
2018-11-06T07:56:58.758Z,100
2018-11-06T07:57:59.027Z,100
2018-11-06T07:58:58.619Z,100
2018-11-06T07:59:59.039Z,100
2018-11-06T08:00:58.767Z,100
2018-11-06T08:01:58.661Z,100
2018-11-06T08:02:58.641Z,100
2018-11-06T08:03:58.647Z,100
2018-11-06T08:04:58.607Z,100
2018-11-06T08:05:58.744Z,100
2018-11-06T08:06:58.673Z,100
2018-11-06T08:07:59.175Z,100
2018-11-06T08:08:58.846Z,100
2018-11-06T08:09:58.699Z,100
2018-11-06T08:10:58.603Z,100
2018-11-06T08:11:58.601Z,100
2018-11-06T08:12:58.605Z,100
2018-11-06T08:13:58.625Z,100
2018-11-06T08:14:58.856Z,100
2018-11-06T08:15:58.625Z,100
2018-11-06T08:16:58.613Z,100
2018-11-06T08:17:58.735Z,100
2018-11-06T08:18:58.621Z,100
2018-11-06T08:19:58.625Z,100
2018-11-06T08:20:58.628Z,100
2018-11-06T08:21:58.613Z,100
2018-11-06T08:22:58.618Z,100
2018-11-06T08:23:58.695Z,100
2018-11-06T08:24:58.571Z,100
2018-11-06T08:25:58.907Z,100
2018-11-06T08:26:58.648Z,100
2018-11-06T08:27:58.711Z,100
2018-11-06T08:28:58.829Z,100
2018-11-06T08:29:58.951Z,100
2018-11-06T08:30:59.034Z,100
2018-11-06T08:31:58.987Z,100
2018-11-06T08:32:58.658Z,100
2018-11-06T08:33:58.728Z,100
2018-11-06T08:34:58.628Z,100
2018-11-06T08:35:58.573Z,100
2018-11-06T08:36:59.085Z,100
2018-11-06T08:37:58.615Z,100
2018-11-06T08:38:58.548Z,100
2018-11-06T08:39:58.619Z,100
2018-11-06T08:40:58.788Z,100
2018-11-06T08:41:58.606Z,100
2018-11-06T08:42:58.567Z,100
2018-11-06T08:43:58.570Z,100
2018-11-06T08:44:58.732Z,100
2018-11-06T08:45:58.770Z,100
2018-11-06T08:46:58.551Z,100
2018-11-06T08:47:58.962Z,100
2018-11-06T08:48:58.564Z,100
2018-11-06T08:49:58.598Z,100
2018-11-06T08:50:58.635Z,100
2018-11-06T08:51:58.575Z,100
2018-11-06T08:52:58.725Z,100
2018-11-06T08:53:58.600Z,100
2018-11-06T08:54:58.691Z,100
2018-11-06T08:55:58.610Z,100
2018-11-06T08:56:58.632Z,100
2018-11-06T08:57:58.577Z,100
2018-11-06T08:58:58.581Z,100
2018-11-06T08:59:58.732Z,100
2018-11-06T09:00:58.588Z,100
2018-11-06T09:01:58.554Z,100
2018-11-06T09:02:58.589Z,100
2018-11-06T09:03:58.762Z,100
2018-11-06T09:04:58.664Z,100
2018-11-06T09:05:58.637Z,100
2018-11-06T09:06:58.785Z,100
2018-11-06T09:07:58.615Z,100
2018-11-06T09:08:58.638Z,100
2018-11-06T09:09:58.804Z,100
2018-11-06T09:10:58.917Z,100
2018-11-06T09:11:58.911Z,100
2018-11-06T09:12:58.516Z,100
2018-11-06T09:13:58.723Z,100
2018-11-06T09:14:58.518Z,100
2018-11-06T09:15:58.604Z,100
2018-11-06T09:16:58.637Z,100
2018-11-06T09:17:58.672Z,100
2018-11-06T09:18:58.521Z,100
2018-11-06T09:19:58.510Z,100
2018-11-06T09:20:58.976Z,100
2018-11-06T09:21:58.583Z,100
2018-11-06T09:22:58.805Z,100
2018-11-06T09:23:58.504Z,100
2018-11-06T09:24:58.537Z,100
2018-11-06T09:25:58.505Z,100
2018-11-06T09:26:58.607Z,100
2018-11-06T09:27:58.753Z,100
2018-11-06T09:28:58.583Z,100
2018-11-06T09:29:58.589Z,100
2018-11-06T09:30:58.885Z,100
2018-11-06T09:31:58.884Z,100
2018-11-06T09:32:58.766Z,100
2018-11-06T09:33:58.616Z,100
2018-11-06T09:34:58.796Z,100
2018-11-06T09:35:58.631Z,100
2018-11-06T09:36:58.507Z,100
2018-11-06T09:37:58.471Z,100
2018-11-06T09:38:58.548Z,100
2018-11-06T09:39:58.505Z,100
2018-11-06T09:40:58.494Z,100
2018-11-06T09:41:58.486Z,100
2018-11-06T09:42:58.715Z,100
2018-11-06T09:43:58.482Z,100
2018-11-06T09:44:58.538Z,100
2018-11-06T09:45:58.745Z,100
2018-11-06T09:46:58.470Z,100
2018-11-06T09:47:58.443Z,100
2018-11-06T09:48:58.457Z,100
2018-11-06T09:49:58.474Z,100
2018-11-06T09:50:58.458Z,100
2018-11-06T09:51:58.497Z,100
2018-11-06T09:52:58.463Z,100
2018-11-06T09:53:58.488Z,100
2018-11-06T09:54:58.475Z,100
2018-11-06T09:55:58.458Z,100
2018-11-06T09:56:58.820Z,100
2018-11-06T09:57:58.502Z,100
2018-11-06T09:58:58.455Z,100
2018-11-06T09:59:58.456Z,100
2018-11-06T10:00:59.292Z,100
2018-11-06T10:01:58.512Z,100
2018-11-06T10:02:58.492Z,100
2018-11-06T10:03:58.757Z,100
2018-11-06T10:04:58.499Z,100
2018-11-06T10:05:58.801Z,100
2018-11-06T10:06:58.649Z,100
2018-11-06T10:07:58.589Z,100
2018-11-06T10:08:58.509Z,100
2018-11-06T10:09:58.429Z,100
2018-11-06T10:10:58.476Z,100
2018-11-06T10:11:58.629Z,100
2018-11-06T10:12:58.558Z,100
2018-11-06T10:13:58.485Z,100
2018-11-06T10:14:58.622Z,100
2018-11-06T10:15:58.414Z,100
2018-11-06T10:16:58.643Z,100
2018-11-06T10:17:58.452Z,100
2018-11-06T10:18:58.482Z,100
2018-11-06T10:19:58.763Z,100
2018-11-06T10:20:58.593Z,100
2018-11-06T10:21:58.566Z,100
2018-11-06T10:22:58.466Z,100
2018-11-06T10:23:58.794Z,100
2018-11-06T10:24:58.567Z,100
2018-11-06T10:25:58.633Z,100
2018-11-06T10:26:58.545Z,100
2018-11-06T10:27:58.404Z,100
2018-11-06T10:28:58.483Z,100
2018-11-06T10:29:58.428Z,100
2018-11-06T10:30:58.669Z,100
2018-11-06T10:31:58.441Z,100
2018-11-06T10:32:58.480Z,100
2018-11-06T10:33:58.421Z,100
2018-11-06T10:34:58.431Z,100
2018-11-06T10:35:58.498Z,100
2018-11-06T10:36:58.546Z,100
2018-11-06T10:37:58.401Z,100
2018-11-06T10:38:58.657Z,100
2018-11-06T10:39:58.604Z,100
2018-11-06T10:40:58.522Z,100
2018-11-06T10:41:58.439Z,100
2018-11-06T10:42:58.568Z,100
2018-11-06T10:43:58.417Z,100
2018-11-06T10:44:58.591Z,100
2018-11-06T10:45:58.417Z,100
2018-11-06T10:46:58.398Z,100
2018-11-06T10:47:58.375Z,100
2018-11-06T10:48:58.691Z,100
2018-11-06T10:49:58.415Z,100
2018-11-06T10:50:58.417Z,100
2018-11-06T10:51:58.497Z,100
2018-11-06T10:52:58.382Z,100
2018-11-06T10:53:58.438Z,100
2018-11-06T10:54:58.380Z,100
2018-11-06T10:55:58.517Z,100
2018-11-06T10:56:58.385Z,100
2018-11-06T10:57:58.430Z,100
2018-11-06T10:58:58.500Z,100
2018-11-06T10:59:58.391Z,100
2018-11-06T11:00:58.504Z,100
2018-11-06T11:01:58.417Z,100
2018-11-06T11:02:58.375Z,100
2018-11-06T11:03:58.428Z,100
2018-11-06T11:04:59.190Z,100
2018-11-06T11:05:58.368Z,100
2018-11-06T11:06:58.611Z,100
2018-11-06T11:07:58.352Z,100
2018-11-06T11:08:58.540Z,100
2018-11-06T11:09:58.503Z,100
2018-11-06T11:10:58.351Z,100
2018-11-06T11:11:58.450Z,100
2018-11-06T11:12:58.439Z,100
2018-11-06T11:13:58.364Z,100
2018-11-06T11:14:58.434Z,100
2018-11-06T11:15:58.353Z,100
2018-11-06T11:16:58.354Z,100
2018-11-06T11:17:58.346Z,100
2018-11-06T11:18:58.351Z,100
2018-11-06T11:19:58.393Z,100
2018-11-06T11:20:58.370Z,100
2018-11-06T11:21:58.373Z,100
2018-11-06T11:22:58.491Z,100
2018-11-06T11:23:58.332Z,100
2018-11-06T11:24:58.364Z,100
2018-11-06T11:25:58.343Z,100
2018-11-06T11:26:58.341Z,100
2018-11-06T11:27:58.363Z,100
2018-11-06T11:28:58.375Z,100
2018-11-06T11:29:58.375Z,100
2018-11-06T11:30:58.365Z,100
2018-11-06T11:31:58.528Z,100
2018-11-06T11:32:58.654Z,100
2018-11-06T11:33:58.560Z,100
2018-11-06T11:34:58.378Z,100
2018-11-06T11:35:58.318Z,100
2018-11-06T11:36:58.396Z,100
2018-11-06T11:37:58.353Z,100
2018-11-06T11:38:59.180Z,100
2018-11-06T11:39:58.320Z,100
2018-11-06T11:40:58.378Z,100
2018-11-06T11:41:58.311Z,100
2018-11-06T11:42:58.420Z,100
2018-11-06T11:43:58.326Z,100
2018-11-06T11:44:58.385Z,100
2018-11-06T11:45:58.473Z,100
2018-11-06T11:46:58.460Z,100
2018-11-06T11:47:58.746Z,100
2018-11-06T11:48:58.355Z,100
2018-11-06T11:49:58.459Z,100
2018-11-06T11:50:58.413Z,100
2018-11-06T11:51:58.398Z,100
2018-11-06T11:52:58.315Z,100
2018-11-06T11:53:58.342Z,100
2018-11-06T11:54:58.433Z,100
2018-11-06T11:55:58.382Z,100
2018-11-06T11:56:58.324Z,100
2018-11-06T11:57:58.290Z,100
2018-11-06T11:58:58.366Z,100
2018-11-06T11:59:58.314Z,100
2018-11-06T12:00:58.552Z,100
2018-11-06T12:01:58.321Z,100
2018-11-06T12:02:58.277Z,100
2018-11-06T12:03:58.678Z,100
2018-11-06T12:04:58.455Z,100
2018-11-06T12:05:58.433Z,100
2018-11-06T12:06:58.400Z,100
2018-11-06T12:07:58.339Z,100
2018-11-06T12:08:58.339Z,100
2018-11-06T12:09:58.323Z,100
2018-11-06T12:10:58.289Z,100
2018-11-06T12:11:58.291Z,100
2018-11-06T12:12:58.295Z,100
2018-11-06T12:13:58.305Z,100
2018-11-06T12:14:58.473Z,100
2018-11-06T12:15:58.520Z,100
2018-11-06T12:16:58.334Z,100
2018-11-06T12:17:58.310Z,100
2018-11-06T12:18:58.289Z,100
2018-11-06T12:19:58.416Z,100
2018-11-06T12:20:58.487Z,100
2018-11-06T12:21:58.463Z,100
2018-11-06T12:22:58.329Z,100
2018-11-06T12:23:58.385Z,100
2018-11-06T12:24:58.565Z,100
2018-11-06T12:25:58.396Z,100
2018-11-06T12:26:59.499Z,100
2018-11-06T12:27:58.248Z,100
2018-11-06T12:28:58.252Z,100
2018-11-06T12:29:58.655Z,100
2018-11-06T12:30:58.222Z,100
2018-11-06T12:31:58.380Z,100
2018-11-06T12:32:58.308Z,100
2018-11-06T12:33:58.671Z,100
2018-11-06T12:34:58.284Z,100
2018-11-06T12:35:58.490Z,100
2018-11-06T12:36:58.387Z,100
2018-11-06T12:37:58.272Z,100
2018-11-06T12:38:58.256Z,100
2018-11-06T12:39:58.291Z,100
2018-11-06T12:40:58.363Z,100
2018-11-06T12:41:58.232Z,100
2018-11-06T12:42:58.389Z,100
2018-11-06T12:43:58.255Z,100
2018-11-06T12:44:58.250Z,100
2018-11-06T12:45:58.265Z,100
2018-11-06T12:46:58.210Z,100
2018-11-06T12:47:58.239Z,100
2018-11-06T12:48:58.279Z,100
2018-11-06T12:49:58.203Z,100
2018-11-06T12:50:58.340Z,100
2018-11-06T12:51:58.211Z,100
2018-11-06T12:52:58.304Z,100
2018-11-06T12:53:58.485Z,100
2018-11-06T12:54:58.216Z,100
2018-11-06T12:55:58.352Z,100
2018-11-06T12:56:58.242Z,100
2018-11-06T12:57:58.286Z,100
2018-11-06T12:58:58.556Z,100
2018-11-06T12:59:58.216Z,100
2018-11-06T13:00:58.188Z,100
2018-11-06T13:01:58.269Z,100
2018-11-06T13:02:58.223Z,100
2018-11-06T13:03:58.274Z,100
2018-11-06T13:04:58.205Z,100
2018-11-06T13:05:58.217Z,100
2018-11-06T13:06:58.307Z,100
2018-11-06T13:08:14.117Z,100
2018-11-06T13:08:58.298Z,100
2018-11-06T13:09:58.256Z,100
2018-11-06T13:10:58.248Z,100
2018-11-06T13:11:58.186Z,100
2018-11-06T13:12:58.196Z,100
2018-11-06T13:13:58.242Z,100
2018-11-06T13:14:59.321Z,100
2018-11-06T13:15:58.643Z,100
2018-11-06T13:16:58.267Z,100
2018-11-06T13:17:58.379Z,100
2018-11-06T13:18:58.390Z,100
2018-11-06T13:19:58.215Z,100
2018-11-06T13:20:58.227Z,100
2018-11-06T13:21:58.288Z,100
2018-11-06T13:22:58.305Z,100
2018-11-06T13:23:58.322Z,100
2018-11-06T13:24:58.197Z,100
2018-11-06T13:25:58.292Z,100
2018-11-06T13:26:58.154Z,100
2018-11-06T13:27:58.287Z,100
2018-11-06T13:28:58.328Z,100
2018-11-06T13:29:58.160Z,100
2018-11-06T13:30:58.198Z,100
2018-11-06T13:31:58.179Z,100
2018-11-06T13:32:58.230Z,100
2018-11-06T13:33:58.189Z,100
2018-11-06T13:34:58.167Z,100
2018-11-06T13:35:58.247Z,100
2018-11-06T13:36:58.283Z,100
2018-11-06T13:37:58.244Z,100
2018-11-06T13:38:58.302Z,100
2018-11-06T13:39:58.203Z,100
2018-11-06T13:40:58.158Z,100
2018-11-06T13:41:58.974Z,100
2018-11-06T13:42:58.658Z,100
2018-11-06T13:43:58.541Z,100
2018-11-06T13:44:58.324Z,100